This is the latest recevied weather packets stored in our database for station/object NG7M. If no packets are shown the sender has not sent any weather packets the latest 10 day(s).
| Time | Temp. | Humidity | Pressure | Rain* | Wind** | Luminosity | Snow |
|---|---|---|---|---|---|---|---|
| 1777754104 | 22.22° C | 17% | 1018.4 hPa | 0 mm | - | - | - |
| 1777753204 | 21.67° C | 17% | 1018.4 hPa | 0 mm | - | - | - |
| 1777750804 | 22.22° C | 15% | 1018.9 hPa | 0 mm | - | - | - |
| 1777749904 | 21.67° C | 15% | 1018.9 hPa | 0 mm | - | - | - |
| 1777743003 | 20° C | 18% | 1020.1 hPa | 0 mm | - | - | - |
| 1777740903 | 19.44° C | 22% | 1020.4 hPa | 0 mm | - | - | - |
| 1777738204 | 17.22° C | 27% | 1020.3 hPa | 0 mm | - | - | - |
| 1777737004 | 15.56° C | 29% | 1020.3 hPa | 0 mm | - | - | - |
| 1777736403 | 15° C | 29% | 1020.3 hPa | 0 mm | - | - | - |
| 1777735204 | 14.44° C | 31% | 1020.5 hPa | 0 mm | - | - | - |
| 1777734903 | 14.44° C | 31% | 1020.5 hPa | 0 mm | - | - | - |
| 1777733404 | 15° C | 28% | 1020.6 hPa | 0 mm | - | - | - |
| 1777730704 | 12.78° C | 33% | 1020.4 hPa | 0 mm | - | - | - |
| 1777729804 | 12.22° C | 37% | 1020.5 hPa | 0 mm | - | - | - |
| 1777729204 | 11.67° C | 39% | 1020.3 hPa | 0 mm | - | - | - |
| 1777728603 | 11.11° C | 37% | 1020.3 hPa | 0 mm | - | - | - |
| 1777728304 | 10.56° C | 38% | 1020 hPa | 0 mm | - | - | - |
| 1777726503 | 7.22° C | 50% | 1020 hPa | 0 mm | - | - | - |
| 1777726204 | 6.67° C | 51% | 1020 hPa | 0 mm | - | - | - |
| 1777725604 | 7.22° C | 50% | 1019.8 hPa | 0 mm | - | - | - |
| 1777722003 | 7.22° C | 56% | 1019.7 hPa | 0 mm | - | - | - |
| 1777720203 | 7.22° C | 56% | 1019.6 hPa | 0 mm | - | - | - |
| 1777716903 | 8.33° C | 53% | 1019.8 hPa | 0 mm | - | - | - |
| 1777716304 | 8.33° C | 52% | 1019.6 hPa | 0 mm | - | - | - |
| 1777715704 | 8.33° C | 51% | 1019.5 hPa | 0 mm | - | - | - |
* Rain latest hour (hover to see other rain measurements)
** Current wind speed in m/s (hover to see current wind gust speed)